createdAt,value
2023-03-12T00:06:37.155Z,99.99
2023-03-12T00:21:37.626Z,99.99
2023-03-12T00:36:37.270Z,99.99
2023-03-12T00:51:37.792Z,99.99
2023-03-12T01:06:37.877Z,99.99
2023-03-12T01:21:37.558Z,99.99
2023-03-12T01:36:37.875Z,99.99
2023-03-12T01:51:38.266Z,99.99
2023-03-12T02:06:38.348Z,99.99
2023-03-12T02:21:38.509Z,98.59
2023-03-12T02:36:38.534Z,97.65
2023-03-12T02:51:38.616Z,93.34
2023-03-12T03:06:38.757Z,91.71
2023-03-12T03:21:38.810Z,87.72
2023-03-12T03:36:39.420Z,84.51
2023-03-12T03:51:40.049Z,83.71
2023-03-12T04:06:40.145Z,77.34
2023-03-12T04:21:40.287Z,75.88
2023-03-12T04:36:40.445Z,77.87
2023-03-12T04:51:40.965Z,75.81
2023-03-12T05:06:41.051Z,75.42
2023-03-12T05:21:41.190Z,65.12
2023-03-12T05:36:41.294Z,70.24
2023-03-12T05:51:41.755Z,70.95
2023-03-12T06:06:41.489Z,70.81
2023-03-12T06:21:41.554Z,67.71
2023-03-12T06:36:41.665Z,89.78
2023-03-12T06:51:41.786Z,98.01
2023-03-12T07:06:42.354Z,99.99
2023-03-12T07:21:41.992Z,99.99
2023-03-12T07:36:42.621Z,99.99
2023-03-12T07:51:43.648Z,99.99
2023-03-12T08:06:44.019Z,99.99
2023-03-12T08:21:45.297Z,98.03
2023-03-12T08:36:44.938Z,96.60
2023-03-12T08:51:45.474Z,91.86
2023-03-12T09:06:45.616Z,88.94
2023-03-12T09:21:45.250Z,85.10
2023-03-12T09:36:45.860Z,83.14
2023-03-12T09:51:46.335Z,77.66
2023-03-12T10:06:47.311Z,76.08
2023-03-12T10:21:48.153Z,76.80
2023-03-12T10:36:49.456Z,75.52
2023-03-12T10:51:49.535Z,73.19
2023-03-12T11:06:49.654Z,72.88
2023-03-12T11:21:50.172Z,69.87
2023-03-12T11:36:49.928Z,68.60
2023-03-12T11:51:50.435Z,69.25
2023-03-12T12:06:50.544Z,69.07
2023-03-12T12:21:50.175Z,63.79
2023-03-12T12:36:50.325Z,64.96
2023-03-12T12:51:50.350Z,63.07
2023-03-12T13:06:50.553Z,64.65
2023-03-12T13:21:50.573Z,59.04
2023-03-12T13:36:51.070Z,58.22
2023-03-12T13:51:50.736Z,60.61
2023-03-12T14:06:51.754Z,62.92
2023-03-12T14:21:51.840Z,62.63
2023-03-12T14:36:51.515Z,61.87
2023-03-12T14:51:51.599Z,65.44
2023-03-12T15:06:52.148Z,67.95
2023-03-12T15:21:51.762Z,70.64
2023-03-12T15:36:51.911Z,72.43
2023-03-12T15:51:52.463Z,75.71
2023-03-12T16:06:52.992Z,81.34
2023-03-12T16:21:52.702Z,87.84
2023-03-12T16:36:52.815Z,88.98
2023-03-12T16:51:53.343Z,95.04
2023-03-12T17:06:54.743Z,99.99
2023-03-12T17:21:55.113Z,99.99
2023-03-12T17:36:55.425Z,99.33
2023-03-12T17:51:55.494Z,90.85
2023-03-12T18:06:56.012Z,84.92
2023-03-12T18:21:55.690Z,76.61
2023-03-12T18:36:55.788Z,55.11
2023-03-12T18:51:55.917Z,41.80
2023-03-12T19:06:56.033Z,32.34
2023-03-12T19:21:56.111Z,30.36
2023-03-12T19:36:56.225Z,24.13
2023-03-12T19:51:56.710Z,22.03
2023-03-12T20:06:56.468Z,19.74
2023-03-12T20:21:56.493Z,18.49
2023-03-12T20:36:56.631Z,18.17
2023-03-12T20:51:56.691Z,17.13
2023-03-12T21:06:56.804Z,16.29
2023-03-12T21:21:56.893Z,14.61
2023-03-12T21:36:57.009Z,13.68
2023-03-12T21:51:57.093Z,12.54
2023-03-12T22:06:57.704Z,13.05
2023-03-12T22:21:57.827Z,12.11
2023-03-12T22:36:57.907Z,10.35
2023-03-12T22:51:58.006Z,11.49
2023-03-12T23:07:12.989Z,11.18
2023-03-12T23:22:03.224Z,11.28
2023-03-12T23:37:03.704Z,11.48
2023-03-12T23:52:03.834Z,12.41
